createdAt,value
2018-08-20T00:02:26.131Z,2.30
2018-08-20T00:04:59.753Z,2.40
2018-08-20T00:07:30.340Z,2.17
2018-08-20T00:10:00.682Z,2.43
2018-08-20T00:12:31.181Z,1.90
2018-08-20T00:15:01.484Z,2.20
2018-08-20T00:17:31.848Z,2.53
2018-08-20T00:20:02.191Z,2.23
2018-08-20T00:22:32.536Z,2.47
2018-08-20T00:25:13.620Z,2.30
2018-08-20T00:27:44.653Z,2.60
2018-08-20T00:30:16.862Z,2.40
2018-08-20T00:32:48.322Z,2.60
2018-08-20T00:35:20.156Z,2.10
2018-08-20T00:37:51.730Z,2.33
2018-08-20T00:40:22.448Z,2.40
2018-08-20T00:42:52.800Z,2.20
2018-08-20T00:45:23.145Z,2.60
2018-08-20T00:47:53.533Z,2.63
2018-08-20T00:50:23.872Z,2.33
2018-08-20T00:52:54.224Z,2.30
2018-08-20T00:55:24.573Z,2.17
2018-08-20T00:57:54.911Z,2.27
2018-08-20T01:00:25.516Z,2.40
2018-08-20T01:02:55.876Z,2.20
2018-08-20T01:05:26.458Z,2.00
2018-08-20T01:07:56.848Z,2.37
2018-08-20T01:10:27.212Z,2.20
2018-08-20T01:12:57.556Z,2.10
2018-08-20T01:15:28.162Z,2.30
2018-08-20T01:17:58.531Z,2.47
2018-08-20T01:20:29.105Z,2.47
2018-08-20T01:22:59.462Z,2.50
2018-08-20T01:25:29.784Z,2.27
2018-08-20T01:28:00.426Z,2.47
2018-08-20T01:30:30.756Z,2.50
2018-08-20T01:33:10.183Z,2.50
2018-08-20T01:35:40.767Z,2.23
2018-08-20T01:38:11.144Z,2.20
2018-08-20T01:40:41.732Z,2.20
2018-08-20T01:43:12.090Z,2.67
2018-08-20T01:45:42.660Z,2.37
2018-08-20T01:48:13.030Z,2.50
2018-08-20T01:50:43.366Z,2.50
2018-08-20T01:53:13.724Z,2.63
2018-08-20T01:55:44.052Z,2.57
2018-08-20T01:58:14.400Z,2.67
2018-08-20T02:00:45.040Z,2.37
2018-08-20T02:03:15.388Z,2.43
2018-08-20T02:05:45.720Z,2.47
2018-08-20T02:08:16.059Z,2.23
2018-08-20T02:10:46.411Z,2.37
2018-08-20T02:13:16.762Z,2.23
2018-08-20T02:15:47.080Z,2.33
2018-08-20T02:18:17.407Z,2.40
2018-08-20T02:20:47.724Z,2.60
2018-08-20T02:23:18.073Z,2.60
2018-08-20T02:25:48.386Z,2.57
2018-08-20T02:28:18.708Z,2.70
2018-08-20T02:30:49.005Z,2.60
2018-08-20T02:33:19.352Z,2.20
2018-08-20T02:35:50.148Z,2.70
2018-08-20T02:38:20.489Z,2.00
2018-08-20T02:40:50.784Z,2.50
2018-08-20T02:43:21.114Z,2.27
2018-08-20T02:45:51.693Z,2.40
2018-08-20T02:48:22.051Z,2.67
2018-08-20T02:50:52.593Z,2.30
2018-08-20T02:53:22.936Z,2.37
2018-08-20T02:55:53.254Z,2.50
2018-08-20T02:58:23.576Z,2.53
2018-08-20T03:00:53.884Z,2.60
2018-08-20T03:03:24.266Z,2.60
2018-08-20T03:05:54.566Z,2.30
2018-08-20T03:08:24.916Z,2.50
2018-08-20T03:10:55.201Z,2.97
2018-08-20T03:13:25.520Z,2.87
2018-08-20T03:15:56.106Z,2.93
2018-08-20T03:18:26.688Z,2.47
2018-08-20T03:20:56.980Z,2.20
2018-08-20T03:23:27.300Z,2.67
2018-08-20T03:25:57.665Z,2.30
2018-08-20T03:28:28.049Z,2.50
2018-08-20T03:30:58.345Z,2.47
2018-08-20T03:33:28.668Z,2.70
2018-08-20T03:35:58.960Z,2.60
2018-08-20T03:38:29.529Z,2.70
2018-08-20T03:40:59.853Z,2.47
2018-08-20T03:43:30.243Z,2.40
2018-08-20T03:46:00.555Z,2.43
2018-08-20T03:48:31.125Z,2.80
2018-08-20T03:51:01.460Z,2.60
2018-08-20T03:53:31.769Z,2.57
2018-08-20T03:56:02.086Z,2.80
2018-08-20T03:58:32.400Z,2.87
2018-08-20T04:01:03.045Z,3.13
2018-08-20T04:03:33.661Z,2.80
2018-08-20T04:06:03.966Z,2.83
2018-08-20T04:08:34.728Z,2.63
2018-08-20T04:11:05.033Z,2.60
2018-08-20T04:13:35.601Z,2.60
2018-08-20T04:16:05.952Z,2.57
2018-08-20T04:18:36.277Z,2.67
2018-08-20T04:21:06.621Z,2.83
2018-08-20T04:23:37.247Z,2.33
2018-08-20T04:26:07.597Z,2.83
2018-08-20T04:28:37.934Z,2.90
2018-08-20T04:31:08.280Z,2.97
2018-08-20T04:33:38.637Z,2.57
2018-08-20T04:36:09.023Z,2.80
2018-08-20T04:38:39.382Z,2.57
2018-08-20T04:41:09.977Z,2.80
2018-08-20T04:43:40.589Z,2.77
2018-08-20T04:46:10.928Z,3.10
2018-08-20T04:48:41.446Z,2.77
2018-08-20T04:51:12.242Z,2.93
2018-08-20T04:53:42.621Z,3.13
2018-08-20T04:56:19.470Z,2.73
2018-08-20T04:58:50.096Z,2.23
2018-08-20T05:01:20.422Z,2.50
2018-08-20T05:03:50.848Z,2.67
2018-08-20T05:06:21.333Z,2.90
2018-08-20T05:08:51.680Z,3.20
2018-08-20T05:11:22.009Z,2.43
2018-08-20T05:13:52.608Z,3.00
2018-08-20T05:16:22.943Z,3.07
2018-08-20T05:18:53.725Z,3.30
2018-08-20T05:21:24.152Z,2.73
2018-08-20T05:23:54.471Z,3.13
2018-08-20T05:26:24.764Z,3.03
2018-08-20T05:28:55.075Z,2.93
2018-08-20T05:31:25.387Z,3.70
2018-08-20T05:33:55.721Z,3.30
2018-08-20T05:36:26.012Z,2.83
2018-08-20T05:38:56.327Z,3.17
2018-08-20T05:41:26.612Z,3.30
2018-08-20T05:43:57.180Z,3.27
2018-08-20T05:46:27.478Z,3.10
2018-08-20T05:48:57.787Z,3.03
2018-08-20T05:51:28.078Z,2.93
2018-08-20T05:53:58.416Z,3.47
2018-08-20T05:56:28.712Z,2.80
2018-08-20T05:58:59.040Z,3.20
2018-08-20T06:01:29.922Z,3.10
2018-08-20T06:04:06.848Z,3.43
2018-08-20T06:06:43.905Z,3.37
2018-08-20T06:09:14.261Z,3.27
2018-08-20T06:11:44.561Z,3.60
2018-08-20T06:14:14.880Z,3.40
2018-08-20T06:16:45.508Z,3.30
2018-08-20T06:19:15.846Z,3.37
2018-08-20T06:21:46.176Z,3.30
2018-08-20T06:24:16.525Z,3.30
2018-08-20T06:26:46.844Z,2.97
2018-08-20T06:29:17.212Z,3.50
2018-08-20T06:31:47.545Z,3.03
2018-08-20T06:34:17.940Z,3.20
2018-08-20T06:36:48.257Z,3.20
2018-08-20T06:39:18.624Z,3.13
2018-08-20T06:41:49.009Z,3.33
2018-08-20T06:44:19.350Z,4.00
2018-08-20T06:46:49.930Z,3.57
2018-08-20T06:49:20.280Z,3.53
2018-08-20T06:51:50.605Z,3.43
2018-08-20T06:54:21.026Z,3.43
2018-08-20T06:56:51.520Z,3.83
2018-08-20T06:59:21.856Z,3.50
2018-08-20T07:01:52.422Z,3.00
2018-08-20T07:04:22.850Z,3.53
2018-08-20T07:06:53.205Z,3.17
2018-08-20T07:09:23.935Z,3.80
2018-08-20T07:11:54.336Z,4.47
2018-08-20T07:14:24.811Z,4.33
2018-08-20T07:16:55.127Z,3.47
2018-08-20T07:19:25.453Z,3.43
2018-08-20T07:21:55.912Z,3.83
2018-08-20T07:24:26.220Z,3.50
2018-08-20T07:26:56.768Z,3.23
2018-08-20T07:29:45.585Z,3.30
2018-08-20T07:32:16.701Z,3.37
2018-08-20T07:34:47.452Z,3.67
2018-08-20T07:37:18.165Z,3.90
2018-08-20T07:39:48.850Z,4.07
2018-08-20T07:42:19.190Z,3.93
2018-08-20T07:44:49.913Z,3.93
2018-08-20T07:47:20.193Z,3.90
2018-08-20T07:49:50.509Z,3.60
2018-08-20T07:52:21.073Z,3.77
2018-08-20T07:58:03.373Z,3.80
2018-08-20T08:00:33.940Z,3.97
2018-08-20T08:03:04.256Z,3.73
2018-08-20T08:05:34.568Z,4.03
2018-08-20T08:08:04.885Z,4.10
2018-08-20T08:10:35.213Z,4.20
2018-08-20T08:13:05.518Z,3.73
2018-08-20T08:15:36.113Z,4.43
2018-08-20T08:18:06.773Z,3.80
2018-08-20T08:20:37.092Z,3.37
2018-08-20T08:23:07.447Z,3.80
2018-08-20T08:25:38.019Z,3.60
2018-08-20T08:28:08.297Z,3.20
2018-08-20T08:30:39.166Z,3.55
2018-08-20T08:33:09.464Z,3.63
2018-08-20T08:35:39.812Z,3.37
2018-08-20T08:38:10.203Z,3.60
2018-08-20T08:40:40.666Z,3.45
2018-08-20T08:43:10.960Z,3.73
2018-08-20T08:45:41.552Z,3.62
2018-08-20T08:48:13.013Z,3.60
2018-08-20T08:51:03.004Z,3.47
2018-08-20T08:53:38.794Z,3.33
2018-08-20T08:56:52.950Z,3.40
2018-08-20T09:00:17.711Z,3.87
2018-08-20T09:02:56.728Z,3.20
2018-08-20T09:05:32.397Z,3.67
2018-08-20T09:12:06.735Z,3.52
2018-08-20T09:21:18.128Z,3.33
2018-08-20T09:24:07.286Z,3.20
2018-08-20T09:41:55.676Z,2.80
2018-08-20T09:44:33.279Z,3.27
2018-08-20T09:47:04.348Z,3.30
2018-08-20T09:49:40.084Z,3.40
2018-08-20T09:52:11.380Z,3.20
2018-08-20T09:54:42.407Z,2.83
2018-08-20T09:57:14.407Z,3.37
2018-08-20T09:59:45.689Z,3.20
2018-08-20T10:02:16.748Z,3.30
2018-08-20T10:20:33.669Z,3.20
2018-08-20T10:23:04.724Z,3.45
2018-08-20T11:00:12.811Z,3.53
2018-08-20T11:02:43.299Z,3.63
2018-08-20T11:05:16.733Z,3.15
2018-08-20T11:07:47.281Z,3.57
2018-08-20T11:10:18.221Z,3.02
2018-08-20T11:12:51.505Z,3.47
2018-08-20T11:15:21.972Z,3.45
2018-08-20T11:17:52.695Z,3.17
2018-08-20T11:20:23.155Z,3.17
2018-08-20T11:22:54.151Z,2.98
2018-08-20T11:25:24.525Z,3.23
2018-08-20T11:27:54.889Z,3.17
2018-08-20T11:30:25.249Z,2.93
2018-08-20T11:32:55.587Z,2.70
2018-08-20T11:35:25.954Z,3.40
2018-08-20T11:37:56.328Z,3.13
2018-08-20T11:40:26.685Z,3.42
2018-08-20T11:42:57.025Z,3.33
2018-08-20T11:45:27.407Z,3.07
2018-08-20T11:47:58.018Z,3.83
2018-08-20T11:50:28.379Z,3.60
2018-08-20T11:52:58.969Z,3.37
2018-08-20T11:55:30.228Z,3.27
2018-08-20T11:58:00.574Z,3.27
2018-08-20T12:00:31.000Z,3.20
2018-08-20T12:03:01.346Z,3.03
2018-08-20T12:05:31.954Z,3.30
2018-08-20T12:08:02.563Z,3.00
2018-08-20T12:10:32.917Z,3.57
2018-08-20T12:13:03.261Z,3.37
2018-08-20T12:15:33.888Z,3.40
2018-08-20T12:18:04.230Z,3.80
2018-08-20T12:20:34.590Z,3.43
2018-08-20T12:23:05.549Z,3.62
2018-08-20T12:25:36.039Z,3.30
2018-08-20T12:28:06.410Z,4.00
2018-08-20T12:30:37.202Z,3.60
2018-08-20T12:33:07.994Z,3.67
2018-08-20T12:35:38.362Z,3.87
2018-08-20T12:38:08.721Z,3.77
2018-08-20T12:40:39.105Z,3.43
2018-08-20T12:43:09.444Z,3.50
2018-08-20T12:45:39.796Z,3.33
2018-08-20T12:48:10.197Z,3.77
2018-08-20T12:50:40.544Z,3.43
2018-08-20T12:53:10.888Z,3.80
2018-08-20T12:55:41.809Z,3.50
2018-08-20T12:58:12.953Z,3.50
2018-08-20T13:00:43.358Z,3.67
2018-08-20T13:03:14.241Z,3.77
2018-08-20T13:05:45.197Z,3.58
2018-08-20T13:08:16.092Z,3.65
2018-08-20T13:10:47.029Z,3.30
2018-08-20T13:13:17.931Z,3.15
2018-08-20T13:15:48.918Z,3.40
2018-08-20T13:18:20.017Z,3.12
2018-08-20T13:20:50.966Z,3.00
2018-08-20T13:23:22.039Z,3.10
2018-08-20T13:25:59.535Z,2.87
2018-08-20T13:28:29.864Z,3.08
2018-08-20T13:31:00.867Z,2.95
2018-08-20T13:33:31.842Z,3.20
2018-08-20T13:36:02.228Z,3.03
2018-08-20T13:38:32.609Z,3.10
2018-08-20T13:41:03.137Z,2.77
2018-08-20T13:43:33.506Z,2.90
2018-08-20T13:46:03.881Z,3.10
2018-08-20T13:48:34.812Z,2.70
2018-08-20T13:51:05.733Z,3.00
2018-08-20T13:53:36.893Z,2.83
2018-08-20T13:56:08.977Z,2.80
2018-08-20T13:58:40.158Z,2.62
2018-08-20T14:01:11.346Z,2.70
2018-08-20T14:03:42.244Z,3.12
2018-08-20T14:06:13.422Z,2.70
2018-08-20T14:08:44.324Z,2.90
2018-08-20T14:11:15.285Z,3.12
2018-08-20T14:13:46.217Z,2.80
2018-08-20T14:16:17.137Z,2.62
2018-08-20T14:18:48.033Z,2.30
2018-08-20T14:21:18.953Z,2.35
2018-08-20T14:23:50.370Z,2.40
2018-08-20T14:26:21.705Z,2.15
2018-08-20T14:28:52.610Z,2.20
2018-08-20T14:31:23.513Z,2.25
2018-08-20T14:33:54.432Z,2.27
2018-08-20T14:36:25.367Z,2.12
2018-08-20T14:38:55.906Z,2.00
2018-08-20T14:41:26.300Z,2.10
2018-08-20T14:43:57.197Z,2.25
2018-08-20T14:46:28.107Z,2.30
2018-08-20T14:48:59.034Z,2.20
2018-08-20T14:51:30.380Z,2.08
2018-08-20T14:54:01.538Z,2.15
2018-08-20T14:56:32.457Z,1.92
2018-08-20T14:59:03.377Z,2.10
2018-08-20T15:01:34.338Z,2.70
2018-08-20T15:04:04.930Z,1.62
2018-08-20T15:07:12.712Z,2.00
2018-08-20T15:09:43.676Z,2.10
2018-08-20T16:18:31.788Z,1.43
2018-08-20T16:21:02.224Z,1.50
2018-08-20T16:23:32.587Z,2.17
2018-08-20T16:26:02.961Z,1.70
2018-08-20T16:28:33.330Z,1.77
2018-08-20T16:31:03.704Z,1.73
2018-08-20T16:33:34.057Z,1.50
2018-08-20T16:36:04.418Z,1.47
2018-08-20T16:38:34.785Z,1.60
2018-08-20T16:41:05.181Z,1.77
2018-08-20T16:43:35.552Z,1.80
2018-08-20T16:46:06.161Z,1.70
2018-08-20T16:48:36.532Z,1.70
2018-08-20T16:51:06.897Z,1.50
2018-08-20T16:53:43.931Z,1.93
2018-08-20T16:56:14.276Z,1.70
2018-08-20T16:58:44.658Z,1.77
2018-08-20T17:01:17.993Z,2.00
2018-08-20T17:03:48.393Z,1.90
2018-08-20T17:06:18.721Z,2.00
2018-08-20T17:08:49.088Z,1.73
2018-08-20T17:11:19.684Z,1.57
2018-08-20T17:13:50.052Z,1.70
2018-08-20T17:16:20.388Z,1.80
2018-08-20T17:18:50.752Z,1.80
2018-08-20T17:21:21.346Z,1.73
2018-08-20T17:23:51.959Z,1.93
2018-08-20T17:29:33.533Z,1.67
2018-08-20T17:32:05.837Z,1.70
2018-08-20T17:34:39.806Z,1.93
2018-08-20T17:37:10.460Z,1.50
2018-08-20T17:43:12.348Z,1.90
2018-08-20T17:45:42.671Z,1.90
2018-08-20T18:07:12.360Z,2.10
2018-08-20T18:09:42.733Z,2.10
2018-08-20T18:12:13.061Z,2.10
2018-08-20T18:14:43.812Z,1.90
2018-08-20T18:17:14.274Z,2.03
2018-08-20T18:19:44.717Z,1.80
2018-08-20T18:22:15.032Z,1.77
2018-08-20T18:24:46.018Z,1.80
2018-08-20T18:27:16.337Z,1.97
2018-08-20T18:29:46.755Z,5.60
2018-08-20T18:32:17.245Z,3.60
2018-08-20T18:34:47.597Z,3.10
2018-08-20T18:37:32.056Z,2.90
2018-08-20T18:40:02.415Z,2.13
2018-08-20T18:42:38.089Z,1.90
2018-08-20T18:45:08.461Z,1.63
2018-08-20T18:47:38.932Z,1.90
2018-08-20T18:50:10.569Z,2.20
2018-08-20T18:52:41.068Z,2.17
2018-08-20T18:55:11.445Z,1.93
2018-08-20T18:57:41.775Z,2.07
2018-08-20T19:00:14.202Z,2.20
2018-08-20T19:03:05.260Z,2.17
2018-08-20T19:05:53.175Z,1.87
2018-08-20T19:08:24.645Z,2.00
2018-08-20T19:10:54.987Z,1.90
2018-08-20T19:13:25.540Z,2.23
2018-08-20T19:15:55.851Z,2.10
2018-08-20T19:18:31.840Z,2.10
2018-08-20T19:21:02.168Z,2.27
2018-08-20T19:23:32.489Z,2.00
2018-08-20T19:26:02.833Z,1.90
2018-08-20T19:28:33.480Z,2.00
2018-08-20T19:31:04.040Z,2.40
2018-08-20T19:33:34.352Z,1.73
2018-08-20T19:36:04.718Z,2.43
2018-08-20T19:38:35.171Z,2.40
2018-08-20T19:41:10.806Z,2.13
2018-08-20T19:43:46.417Z,2.37
2018-08-20T19:46:30.665Z,2.27
2018-08-20T19:49:06.086Z,2.47
2018-08-20T19:51:38.741Z,2.70
2018-08-20T19:54:11.585Z,2.60
2018-08-20T19:56:42.246Z,2.50
2018-08-20T19:59:13.214Z,2.93
2018-08-20T20:01:43.564Z,3.17
2018-08-20T20:04:15.510Z,3.33
2018-08-20T20:06:45.857Z,3.37
2018-08-20T20:09:16.208Z,3.00
2018-08-20T20:11:50.361Z,3.07
2018-08-20T20:14:20.673Z,3.10
2018-08-20T20:16:52.481Z,3.87
2018-08-20T20:19:22.879Z,3.20
2018-08-20T20:21:53.254Z,3.37
2018-08-20T20:24:23.581Z,3.20
2018-08-20T20:26:53.929Z,3.17
2018-08-20T20:29:24.259Z,3.27
2018-08-20T20:31:54.612Z,3.37
2018-08-20T20:34:24.989Z,3.10
2018-08-20T20:36:55.345Z,3.37
2018-08-20T20:39:25.668Z,3.37
2018-08-20T20:41:56.042Z,3.33
2018-08-20T20:44:26.372Z,2.70
2018-08-20T20:46:56.735Z,2.87
2018-08-20T20:49:27.256Z,2.47
2018-08-20T20:51:57.644Z,3.17
2018-08-20T20:54:27.964Z,3.00
2018-08-20T20:56:58.312Z,2.40
2018-08-20T20:59:28.901Z,2.87
2018-08-20T21:01:59.396Z,2.87
2018-08-20T21:04:31.383Z,3.07
2018-08-20T21:07:01.958Z,2.70
2018-08-20T21:09:49.756Z,3.03
2018-08-20T21:12:20.084Z,3.00
2018-08-20T21:14:50.389Z,3.20
2018-08-20T21:17:20.696Z,2.90
2018-08-20T21:19:51.070Z,2.93
2018-08-20T21:22:21.493Z,3.27
2018-08-20T21:24:52.042Z,2.67
2018-08-20T21:27:28.273Z,2.57
2018-08-20T21:30:00.598Z,2.63
2018-08-20T21:32:31.001Z,3.03
2018-08-20T21:35:01.300Z,3.13
2018-08-20T21:37:31.612Z,2.50
2018-08-20T21:40:01.904Z,2.60
2018-08-20T21:42:37.374Z,2.70
2018-08-20T21:45:07.742Z,2.80
2018-08-20T21:47:38.088Z,2.83
2018-08-20T21:50:08.388Z,2.70
2018-08-20T21:52:38.944Z,2.43
2018-08-20T21:55:09.258Z,2.90
2018-08-20T21:57:44.164Z,3.20
2018-08-20T22:00:17.453Z,2.83
2018-08-20T22:02:53.060Z,2.90
2018-08-20T22:05:23.370Z,2.93
2018-08-20T22:07:55.881Z,2.93
2018-08-20T22:10:27.892Z,2.93
2018-08-20T22:12:58.264Z,3.00
2018-08-20T22:15:28.593Z,2.93
2018-08-20T22:17:58.928Z,3.47
2018-08-20T22:20:29.274Z,3.20
2018-08-20T22:23:11.917Z,3.00
2018-08-20T22:25:30.304Z,3.27
2018-08-20T22:28:00.652Z,3.30
2018-08-20T22:30:31.773Z,3.33
2018-08-20T22:33:02.155Z,3.70
2018-08-20T22:35:32.484Z,3.17
2018-08-20T22:38:02.844Z,3.67
2018-08-20T22:40:33.160Z,3.13
2018-08-20T22:43:03.500Z,3.63
2018-08-20T22:45:33.832Z,3.47
2018-08-20T22:48:04.187Z,3.73
2018-08-20T22:50:34.756Z,3.10
2018-08-20T22:53:05.648Z,3.43
2018-08-20T22:55:35.985Z,3.83
2018-08-20T22:58:11.368Z,3.20
2018-08-20T23:00:41.707Z,3.57
2018-08-20T23:03:12.077Z,3.50
2018-08-20T23:05:42.390Z,3.13
2018-08-20T23:08:15.699Z,3.43
2018-08-20T23:10:46.052Z,3.50
2018-08-20T23:13:16.408Z,3.20
2018-08-20T23:15:46.729Z,3.20
2018-08-20T23:18:17.085Z,3.33
2018-08-20T23:20:48.066Z,3.30
2018-08-20T23:23:23.893Z,3.20
2018-08-20T23:25:59.483Z,3.23
2018-08-20T23:28:29.853Z,3.77
2018-08-20T23:31:01.225Z,3.47
2018-08-20T23:33:33.043Z,3.47
2018-08-20T23:36:03.365Z,3.30
2018-08-20T23:38:33.753Z,3.60
2018-08-20T23:41:04.168Z,3.57
2018-08-20T23:43:34.579Z,3.53
2018-08-20T23:46:04.917Z,3.50
2018-08-20T23:48:35.275Z,3.40
2018-08-20T23:51:06.603Z,3.47
2018-08-20T23:53:37.222Z,3.20
2018-08-20T23:56:07.549Z,3.77
2018-08-20T23:58:37.897Z,3.53
